Airfield :
LOGIN :

Register | Disclaimer

   EN    FR    IT 

 










Legend :    VFR   Marginal VFR   IFR   Intensive IFR   Very Intensive IFR
Visi :
Ceiling :
>= 8 km
>= 3000ft
5 to 8 km
1000 to 3000 ft
1500m to 5 km
500 to 1000 ft
800 to 1500m
200 to 500 ft
< 800m
< 200 ft
Symbols :   Thunderstorms  Fog  Heavy snow  Heavy precipitations  Wind > 20 kt
SIGMETs :     Misc.  Thunderstorms  Icing  Turbulence  Mountain Waves  Volcanic Ashes







- Airport Elevation : 1496 ft
- IATA code : SBZ


LRSB - Sibiu

CURRENT METAR :
  • 191600Z 10004KT 070V140 9999 FEW045 FEW050TCU 23/15 Q1018

EXPIRED METARs :
  • 191530Z 04009KT 9999 FEW036CB SCT065 22/15 Q1018
  • 191500Z VRB01KT 9999 FEW036CB SCT065 24/13 Q1018
  • 191430Z 16004KT 120V180 9999 FEW038CB SCT067 23/13 Q1017
  • 191400Z 19006KT 160V220 9999 SCT040CB SCT070 23/14 Q1018
  • 191330Z 20011KT 9999 VCTS SCT040CB SCT070 22/13 Q1018

TAF TAF LRSB
Valid from the 19 at 12:00 until the 20 at 12:00 UTC


191100Z 1912/2012 05008KT CAVOK
TEMPO 1912/1917 VRB20G30KT 3000 TSRA BKN035CB
PROB30 1912/1915 1500 +TSRA
No reported NOTAMs for that airfield.



MET'MAP, your aeronautical weather chart ! - Copyright ORBIFLY December 2007 - Disclaimer

ORBIFLY MET'MAP TEAM :

Programming & Development : Alexandra Zaïnal
Concept & Development : Baudouin d'Aumeries
Co-Development & Prog : Marc-Olivier Méhu
Technical & hardware support : Manuel Goepfert

Contact : metmap@orbifly.com




SOURCES & CREDITS :

   NOAA